SAS1817 EKCH-LSZH
Flight info
| Callsign | SAS1817 |
|---|---|
| Flight time | 1h 28m |
| Altitude | 36000 |
| Route | NEXEN2A NEXEN T503 GIMRU DCT MICOS DCT TOLGI DCT SWALM DCT OMOGI/N0452F350 T721 RILAX RILAX2A |
| Aircraft | A320/M-SDE3FGHIRWY/LB1 |
Departure
| Time | 2026-05-05 16:52 |
|---|---|
| Airport | Copenhagen Kastrup Airport (EKCH) |
Arrival
| Time | 2026-05-05 18:20 |
|---|---|
| Airport | Zürich Airport (LSZH) |
| Time | Latitude | Longitude | Altitude | Speed | Heading |
|---|---|---|---|---|---|
| 2026-05-05 16:43 | 55.62608 | 12.64901 | 26 ft | 0 kts | 92° |
| 2026-05-05 16:46 | 55.62608 | 12.64895 | 26 ft | 2 kts | 92° |
| 2026-05-05 16:46 | 55.62609 | 12.64865 | 26 ft | 2 kts | 92° |
| 2026-05-05 16:46 | 55.62609 | 12.64834 | 24 ft | 2 kts | 92° |
| 2026-05-05 16:47 | 55.62610 | 12.64804 | 24 ft | 2 kts | 127° |
| 2026-05-05 16:47 | 55.62619 | 12.64789 | 28 ft | 0 kts | 175° |
| 2026-05-05 16:48 | 55.62587 | 12.64785 | 24 ft | 9 kts | 185° |
| 2026-05-05 16:48 | 55.62486 | 12.64775 | 24 ft | 22 kts | 179° |
| 2026-05-05 16:48 | 55.62337 | 12.64781 | 26 ft | 21 kts | 176° |
| 2026-05-05 16:49 | 55.62205 | 12.64757 | 26 ft | 18 kts | 207° |
| 2026-05-05 16:49 | 55.62103 | 12.64646 | 24 ft | 17 kts | 213° |
| 2026-05-05 16:49 | 55.61977 | 12.64516 | 24 ft | 27 kts | 197° |
| 2026-05-05 16:49 | 55.61771 | 12.64552 | 25 ft | 31 kts | 170° |
| 2026-05-05 16:50 | 55.61564 | 12.64435 | 24 ft | 36 kts | 212° |
| 2026-05-05 16:50 | 55.61326 | 12.64161 | 24 ft | 46 kts | 213° |
| 2026-05-05 16:50 | 55.61042 | 12.63834 | 24 ft | 49 kts | 212° |
| 2026-05-05 16:50 | 55.60850 | 12.63620 | 24 ft | 23 kts | 209° |
| 2026-05-05 16:51 | 55.60739 | 12.63723 | 24 ft | 18 kts | 139° |
| 2026-05-05 16:51 | 55.60683 | 12.63854 | 28 ft | 9 kts | 96° |
| 2026-05-05 16:51 | 55.60715 | 12.63930 | 28 ft | 8 kts | 38° |
| 2026-05-05 16:51 | 55.60835 | 12.64112 | 29 ft | 56 kts | 41° |
| 2026-05-05 16:52 | 55.61340 | 12.64893 | 27 ft | 133 kts | 41° |
| 2026-05-05 16:52 | 55.62146 | 12.66148 | 392 ft | 161 kts | 41° |
| 2026-05-05 16:52 | 55.62975 | 12.67506 | 1267 ft | 167 kts | 40° |
| 2026-05-05 16:52 | 55.63819 | 12.69011 | 1757 ft | 183 kts | 55° |
| 2026-05-05 16:53 | 55.64161 | 12.71313 | 2003 ft | 212 kts | 92° |
| 2026-05-05 16:53 | 55.63629 | 12.73911 | 2351 ft | 241 kts | 120° |
| 2026-05-05 16:53 | 55.62567 | 12.76387 | 2869 ft | 262 kts | 136° |
| 2026-05-05 16:53 | 55.60951 | 12.77938 | 3668 ft | 271 kts | 166° |
| 2026-05-05 16:54 | 55.59068 | 12.77973 | 4554 ft | 275 kts | 194° |
| 2026-05-05 16:54 | 55.57348 | 12.76509 | 5424 ft | 276 kts | 220° |
| 2026-05-05 16:54 | 55.55950 | 12.74183 | 6319 ft | 277 kts | 227° |
| 2026-05-05 16:54 | 55.54605 | 12.71811 | 7210 ft | 276 kts | 227° |
| 2026-05-05 16:55 | 55.53232 | 12.69379 | 8139 ft | 276 kts | 227° |
| 2026-05-05 16:55 | 55.51894 | 12.67015 | 9028 ft | 276 kts | 227° |
| 2026-05-05 16:55 | 55.50531 | 12.64613 | 9710 ft | 278 kts | 227° |
| 2026-05-05 16:55 | 55.49166 | 12.62218 | 9887 ft | 276 kts | 227° |
| 2026-05-05 16:56 | 55.47804 | 12.59839 | 9983 ft | 276 kts | 227° |
| 2026-05-05 16:56 | 55.46400 | 12.57384 | 10313 ft | 295 kts | 227° |
| 2026-05-05 16:56 | 55.44886 | 12.54735 | 10509 ft | 318 kts | 227° |
| 2026-05-05 16:56 | 55.43278 | 12.51927 | 10953 ft | 330 kts | 227° |
| 2026-05-05 16:57 | 55.41636 | 12.49068 | 11634 ft | 334 kts | 227° |
| 2026-05-05 16:57 | 55.39981 | 12.46189 | 12365 ft | 336 kts | 227° |
| 2026-05-05 16:57 | 55.38309 | 12.43287 | 13049 ft | 341 kts | 227° |
| 2026-05-05 16:57 | 55.36576 | 12.40277 | 13247 ft | 358 kts | 227° |
| 2026-05-05 16:58 | 55.34788 | 12.37175 | 13763 ft | 364 kts | 227° |
| 2026-05-05 16:58 | 55.32979 | 12.34041 | 14325 ft | 367 kts | 227° |
| 2026-05-05 16:58 | 55.31156 | 12.30889 | 14903 ft | 369 kts | 227° |
| 2026-05-05 16:58 | 55.29319 | 12.27720 | 15453 ft | 371 kts | 227° |
| 2026-05-05 16:59 | 55.27472 | 12.24543 | 16015 ft | 374 kts | 227° |
| 2026-05-05 16:59 | 55.25608 | 12.21339 | 16563 ft | 376 kts | 227° |
| 2026-05-05 16:59 | 55.23735 | 12.18124 | 17120 ft | 378 kts | 227° |
| 2026-05-05 16:59 | 55.21850 | 12.14892 | 17655 ft | 380 kts | 227° |
| 2026-05-05 17:00 | 55.19898 | 12.11739 | 18175 ft | 385 kts | 221° |
| 2026-05-05 17:00 | 55.17737 | 12.08943 | 18605 ft | 388 kts | 219° |
| 2026-05-05 17:00 | 55.15551 | 12.06143 | 18999 ft | 391 kts | 219° |
| 2026-05-05 17:00 | 55.13348 | 12.03328 | 19427 ft | 394 kts | 219° |
| 2026-05-05 17:01 | 55.11128 | 12.00498 | 19881 ft | 396 kts | 219° |
| 2026-05-05 17:01 | 55.08900 | 11.97664 | 20317 ft | 398 kts | 219° |
| 2026-05-05 17:01 | 55.06659 | 11.94820 | 20739 ft | 399 kts | 219° |
| 2026-05-05 17:01 | 55.04407 | 11.91962 | 21167 ft | 401 kts | 219° |
| 2026-05-05 17:02 | 55.02144 | 11.89087 | 21591 ft | 403 kts | 219° |
| 2026-05-05 17:02 | 54.99871 | 11.86202 | 21993 ft | 405 kts | 220° |
| 2026-05-05 17:02 | 54.97587 | 11.83308 | 22382 ft | 407 kts | 219° |
| 2026-05-05 17:02 | 54.95292 | 11.80404 | 22770 ft | 409 kts | 220° |
| 2026-05-05 17:03 | 54.92988 | 11.77491 | 23143 ft | 411 kts | 220° |
| 2026-05-05 17:03 | 54.90701 | 11.74606 | 23536 ft | 412 kts | 220° |
| 2026-05-05 17:03 | 54.88379 | 11.71683 | 23865 ft | 414 kts | 220° |
| 2026-05-05 17:03 | 54.86043 | 11.68750 | 24182 ft | 415 kts | 220° |
| 2026-05-05 17:04 | 54.83698 | 11.65813 | 24491 ft | 416 kts | 220° |
| 2026-05-05 17:04 | 54.81341 | 11.62866 | 24796 ft | 418 kts | 220° |
| 2026-05-05 17:04 | 54.78979 | 11.59915 | 25087 ft | 419 kts | 220° |
| 2026-05-05 17:04 | 54.76614 | 11.56959 | 25374 ft | 420 kts | 220° |
| 2026-05-05 17:05 | 54.74235 | 11.53990 | 25655 ft | 422 kts | 220° |
| 2026-05-05 17:05 | 54.71854 | 11.51019 | 25954 ft | 423 kts | 220° |
| 2026-05-05 17:05 | 54.69464 | 11.48037 | 26237 ft | 424 kts | 220° |
| 2026-05-05 17:05 | 54.67074 | 11.45059 | 26536 ft | 424 kts | 219° |
| 2026-05-05 17:06 | 54.64675 | 11.42080 | 26800 ft | 425 kts | 219° |
| 2026-05-05 17:06 | 54.62270 | 11.39104 | 27085 ft | 426 kts | 219° |
| 2026-05-05 17:06 | 54.59855 | 11.36124 | 27351 ft | 427 kts | 219° |
| 2026-05-05 17:06 | 54.57436 | 11.33137 | 27602 ft | 429 kts | 219° |
| 2026-05-05 17:07 | 54.55009 | 11.30144 | 27912 ft | 428 kts | 219° |
| 2026-05-05 17:07 | 54.52589 | 11.27179 | 28301 ft | 426 kts | 219° |
| 2026-05-05 17:07 | 54.50174 | 11.24241 | 28681 ft | 425 kts | 219° |
| 2026-05-05 17:07 | 54.47766 | 11.21321 | 29025 ft | 423 kts | 219° |
| 2026-05-05 17:08 | 54.45366 | 11.18410 | 29445 ft | 421 kts | 219° |
| 2026-05-05 17:08 | 54.43013 | 11.15559 | 29855 ft | 418 kts | 219° |
| 2026-05-05 17:08 | 54.40641 | 11.12687 | 30206 ft | 416 kts | 219° |
| 2026-05-05 17:08 | 54.38275 | 11.09828 | 30526 ft | 415 kts | 219° |
| 2026-05-05 17:09 | 54.35915 | 11.06984 | 30831 ft | 414 kts | 219° |
| 2026-05-05 17:09 | 54.33560 | 11.04146 | 31119 ft | 413 kts | 219° |
| 2026-05-05 17:09 | 54.31176 | 11.01393 | 31407 ft | 415 kts | 214° |
| 2026-05-05 17:09 | 54.28557 | 10.99261 | 31674 ft | 420 kts | 205° |
| 2026-05-05 17:10 | 54.25772 | 10.97515 | 31950 ft | 420 kts | 205° |
| 2026-05-05 17:10 | 54.23033 | 10.95800 | 32218 ft | 419 kts | 205° |
| 2026-05-05 17:10 | 54.20339 | 10.94110 | 32544 ft | 417 kts | 205° |
| 2026-05-05 17:10 | 54.17617 | 10.92398 | 32847 ft | 416 kts | 205° |
| 2026-05-05 17:11 | 54.14904 | 10.90691 | 33131 ft | 415 kts | 205° |
| 2026-05-05 17:11 | 54.12196 | 10.88987 | 33419 ft | 414 kts | 205° |
| 2026-05-05 17:11 | 54.09499 | 10.87289 | 33716 ft | 413 kts | 205° |
| 2026-05-05 17:11 | 54.06800 | 10.85595 | 33990 ft | 413 kts | 205° |
| 2026-05-05 17:12 | 54.04106 | 10.83912 | 34213 ft | 412 kts | 205° |
| 2026-05-05 17:12 | 54.01412 | 10.82235 | 34414 ft | 413 kts | 205° |
| 2026-05-05 17:12 | 53.98715 | 10.80559 | 34610 ft | 413 kts | 205° |
| 2026-05-05 17:12 | 53.96017 | 10.78884 | 34827 ft | 413 kts | 205° |
| 2026-05-05 17:13 | 53.93320 | 10.77212 | 35024 ft | 413 kts | 204° |
| 2026-05-05 17:13 | 53.90619 | 10.75536 | 35211 ft | 414 kts | 204° |
| 2026-05-05 17:13 | 53.87912 | 10.73858 | 35391 ft | 414 kts | 204° |
| 2026-05-05 17:13 | 53.85203 | 10.72182 | 35567 ft | 415 kts | 204° |
| 2026-05-05 17:14 | 53.82491 | 10.70506 | 35742 ft | 415 kts | 204° |
| 2026-05-05 17:14 | 53.79772 | 10.68832 | 35887 ft | 416 kts | 204° |
| 2026-05-05 17:14 | 53.74326 | 10.65482 | 35920 ft | 416 kts | 204° |
| 2026-05-05 17:15 | 53.68893 | 10.62140 | 35919 ft | 415 kts | 204° |
| 2026-05-05 17:15 | 53.63462 | 10.58816 | 35918 ft | 415 kts | 204° |
| 2026-05-05 17:16 | 53.58029 | 10.55507 | 35915 ft | 415 kts | 204° |
| 2026-05-05 17:16 | 53.52600 | 10.52201 | 35895 ft | 415 kts | 204° |
| 2026-05-05 17:17 | 53.47168 | 10.48902 | 35896 ft | 415 kts | 204° |
| 2026-05-05 17:17 | 53.41730 | 10.45614 | 35900 ft | 415 kts | 204° |
| 2026-05-05 17:18 | 53.36290 | 10.42331 | 35903 ft | 415 kts | 204° |
| 2026-05-05 17:18 | 53.30853 | 10.39058 | 35905 ft | 416 kts | 203° |
| 2026-05-05 17:19 | 53.25405 | 10.35796 | 35887 ft | 416 kts | 203° |
| 2026-05-05 17:19 | 53.19956 | 10.32533 | 35894 ft | 416 kts | 203° |
| 2026-05-05 17:20 | 53.14506 | 10.29272 | 35893 ft | 416 kts | 203° |
| 2026-05-05 17:20 | 53.09059 | 10.26020 | 35892 ft | 416 kts | 203° |
| 2026-05-05 17:21 | 53.03603 | 10.22791 | 35893 ft | 416 kts | 203° |
| 2026-05-05 17:22 | 52.95407 | 10.17945 | 35894 ft | 417 kts | 203° |
| 2026-05-05 17:22 | 52.89944 | 10.14726 | 35902 ft | 417 kts | 203° |
| 2026-05-05 17:23 | 52.84518 | 10.11529 | 35910 ft | 417 kts | 203° |
| 2026-05-05 17:23 | 52.79057 | 10.08328 | 35901 ft | 416 kts | 202° |
| 2026-05-05 17:24 | 52.73595 | 10.05135 | 35899 ft | 416 kts | 202° |
| 2026-05-05 17:24 | 52.69059 | 10.02487 | 35907 ft | 416 kts | 202° |
| 2026-05-05 17:25 | 52.63607 | 9.99311 | 35893 ft | 416 kts | 202° |
| 2026-05-05 17:25 | 52.58153 | 9.96151 | 35876 ft | 416 kts | 202° |
| 2026-05-05 17:26 | 52.52700 | 9.92999 | 35881 ft | 416 kts | 202° |
| 2026-05-05 17:26 | 52.47240 | 9.89837 | 35861 ft | 416 kts | 202° |
| 2026-05-05 17:27 | 52.41779 | 9.86686 | 35857 ft | 416 kts | 202° |
| 2026-05-05 17:27 | 52.36315 | 9.83545 | 35863 ft | 416 kts | 202° |
| 2026-05-05 17:28 | 52.30852 | 9.80413 | 35857 ft | 416 kts | 201° |
| 2026-05-05 17:28 | 52.25380 | 9.77299 | 35857 ft | 416 kts | 201° |
| 2026-05-05 17:29 | 52.19913 | 9.74184 | 35847 ft | 416 kts | 201° |
| 2026-05-05 17:29 | 52.14445 | 9.71064 | 35843 ft | 416 kts | 201° |
| 2026-05-05 17:30 | 52.08976 | 9.67955 | 35833 ft | 416 kts | 200° |
| 2026-05-05 17:30 | 52.03501 | 9.64871 | 35844 ft | 416 kts | 200° |
| 2026-05-05 17:31 | 51.98028 | 9.61780 | 35845 ft | 417 kts | 200° |
| 2026-05-05 17:31 | 51.92550 | 9.58692 | 35844 ft | 417 kts | 200° |
| 2026-05-05 17:32 | 51.87070 | 9.55615 | 35834 ft | 417 kts | 200° |
| 2026-05-05 17:32 | 51.81524 | 9.52865 | 35824 ft | 419 kts | 192° |
| 2026-05-05 17:33 | 51.75831 | 9.51161 | 35823 ft | 419 kts | 192° |
| 2026-05-05 17:33 | 51.70092 | 9.49436 | 35807 ft | 420 kts | 192° |
| 2026-05-05 17:34 | 51.64347 | 9.47712 | 35804 ft | 420 kts | 192° |
| 2026-05-05 17:34 | 51.58595 | 9.45991 | 35807 ft | 421 kts | 191° |
| 2026-05-05 17:35 | 51.52846 | 9.44282 | 35809 ft | 420 kts | 191° |
| 2026-05-05 17:35 | 51.47096 | 9.42572 | 35801 ft | 420 kts | 192° |
| 2026-05-05 17:36 | 51.41343 | 9.40862 | 35799 ft | 421 kts | 191° |
| 2026-05-05 17:36 | 51.35579 | 9.39154 | 35805 ft | 421 kts | 191° |
| 2026-05-05 17:37 | 51.29815 | 9.37456 | 35810 ft | 421 kts | 191° |
| 2026-05-05 17:37 | 51.24050 | 9.35758 | 35809 ft | 421 kts | 191° |
| 2026-05-05 17:38 | 51.18286 | 9.34069 | 35800 ft | 421 kts | 191° |
| 2026-05-05 17:38 | 51.12528 | 9.32389 | 35797 ft | 421 kts | 191° |
| 2026-05-05 17:39 | 51.06763 | 9.30700 | 35796 ft | 422 kts | 191° |
| 2026-05-05 17:39 | 51.00990 | 9.29020 | 35799 ft | 422 kts | 191° |
| 2026-05-05 17:40 | 50.95209 | 9.27339 | 35802 ft | 423 kts | 190° |
| 2026-05-05 17:40 | 50.89418 | 9.25656 | 35802 ft | 423 kts | 190° |
| 2026-05-05 17:41 | 50.83626 | 9.23982 | 35799 ft | 423 kts | 190° |
| 2026-05-05 17:41 | 50.77832 | 9.22318 | 35798 ft | 423 kts | 190° |
| 2026-05-05 17:42 | 50.72075 | 9.20672 | 35799 ft | 423 kts | 190° |
| 2026-05-05 17:42 | 50.66256 | 9.19263 | 35806 ft | 423 kts | 187° |
| 2026-05-05 17:43 | 50.60411 | 9.18138 | 35808 ft | 423 kts | 187° |
| 2026-05-05 17:43 | 50.54570 | 9.17008 | 35806 ft | 423 kts | 187° |
| 2026-05-05 17:44 | 50.48736 | 9.15806 | 35803 ft | 423 kts | 187° |
| 2026-05-05 17:44 | 50.42899 | 9.14589 | 35798 ft | 423 kts | 187° |
| 2026-05-05 17:45 | 50.37052 | 9.13382 | 35799 ft | 424 kts | 187° |
| 2026-05-05 17:45 | 50.31208 | 9.12176 | 35802 ft | 424 kts | 187° |
| 2026-05-05 17:46 | 50.25358 | 9.10989 | 35798 ft | 424 kts | 186° |
| 2026-05-05 17:46 | 50.19491 | 9.09792 | 35798 ft | 425 kts | 187° |
| 2026-05-05 17:47 | 50.13621 | 9.08592 | 35803 ft | 426 kts | 186° |
| 2026-05-05 17:47 | 50.07741 | 9.07401 | 35807 ft | 426 kts | 187° |
| 2026-05-05 17:48 | 50.01854 | 9.06212 | 35816 ft | 427 kts | 186° |
| 2026-05-05 17:48 | 49.95951 | 9.05020 | 35813 ft | 428 kts | 186° |
| 2026-05-05 17:49 | 49.90046 | 9.03823 | 35810 ft | 428 kts | 186° |
| 2026-05-05 17:49 | 49.84129 | 9.02625 | 35821 ft | 429 kts | 186° |
| 2026-05-05 17:50 | 49.78205 | 9.01442 | 35824 ft | 430 kts | 186° |
| 2026-05-05 17:50 | 49.72264 | 9.00254 | 35817 ft | 431 kts | 186° |
| 2026-05-05 17:51 | 49.66314 | 8.99079 | 35815 ft | 431 kts | 186° |
| 2026-05-05 17:51 | 49.60416 | 8.97678 | 35824 ft | 432 kts | 189° |
| 2026-05-05 17:52 | 49.54504 | 8.95957 | 35829 ft | 433 kts | 190° |
| 2026-05-05 17:52 | 49.48582 | 8.94236 | 35829 ft | 433 kts | 189° |
| 2026-05-05 17:53 | 49.42659 | 8.92595 | 35567 ft | 431 kts | 189° |
| 2026-05-05 17:53 | 49.39706 | 8.91798 | 34855 ft | 432 kts | 188° |
| 2026-05-05 17:53 | 49.36742 | 8.91003 | 34115 ft | 433 kts | 188° |
| 2026-05-05 17:53 | 49.33770 | 8.90205 | 33292 ft | 435 kts | 188° |
| 2026-05-05 17:54 | 49.30779 | 8.89399 | 32395 ft | 437 kts | 188° |
| 2026-05-05 17:54 | 49.27782 | 8.88585 | 31474 ft | 440 kts | 188° |
| 2026-05-05 17:54 | 49.24756 | 8.87758 | 30545 ft | 443 kts | 188° |
| 2026-05-05 17:54 | 49.21714 | 8.86927 | 29563 ft | 446 kts | 188° |
| 2026-05-05 17:55 | 49.18643 | 8.86096 | 28432 ft | 450 kts | 188° |
| 2026-05-05 17:55 | 49.15557 | 8.85264 | 27323 ft | 452 kts | 189° |
| 2026-05-05 17:55 | 49.12448 | 8.84417 | 26197 ft | 455 kts | 189° |
| 2026-05-05 17:55 | 49.09325 | 8.83560 | 25324 ft | 454 kts | 190° |
| 2026-05-05 17:56 | 49.06249 | 8.82717 | 24855 ft | 446 kts | 190° |
| 2026-05-05 17:56 | 49.03211 | 8.81891 | 24397 ft | 441 kts | 190° |
| 2026-05-05 17:56 | 49.00205 | 8.81080 | 23946 ft | 435 kts | 190° |
| 2026-05-05 17:56 | 48.97263 | 8.80286 | 23503 ft | 426 kts | 190° |
| 2026-05-05 17:57 | 48.94376 | 8.79499 | 22988 ft | 417 kts | 190° |
| 2026-05-05 17:57 | 48.91543 | 8.78725 | 22480 ft | 410 kts | 190° |
| 2026-05-05 17:57 | 48.88761 | 8.77965 | 21969 ft | 403 kts | 191° |
| 2026-05-05 17:57 | 48.86020 | 8.77223 | 21468 ft | 397 kts | 191° |
| 2026-05-05 17:58 | 48.83315 | 8.76493 | 20979 ft | 394 kts | 191° |
| 2026-05-05 17:58 | 48.80628 | 8.75770 | 20493 ft | 390 kts | 191° |
| 2026-05-05 17:58 | 48.77963 | 8.75057 | 20017 ft | 388 kts | 191° |
| 2026-05-05 17:58 | 48.75320 | 8.74350 | 19554 ft | 385 kts | 191° |
| 2026-05-05 17:59 | 48.72690 | 8.73646 | 19086 ft | 382 kts | 191° |
| 2026-05-05 17:59 | 48.70082 | 8.72950 | 18647 ft | 379 kts | 191° |
| 2026-05-05 17:59 | 48.67495 | 8.72265 | 18176 ft | 376 kts | 192° |
| 2026-05-05 17:59 | 48.64930 | 8.71589 | 17853 ft | 374 kts | 192° |
| 2026-05-05 18:00 | 48.63235 | 8.71141 | 17810 ft | 373 kts | 192° |
| 2026-05-05 18:00 | 48.59801 | 8.70228 | 17835 ft | 374 kts | 192° |
| 2026-05-05 18:00 | 48.57239 | 8.69545 | 17838 ft | 374 kts | 192° |
| 2026-05-05 18:00 | 48.54678 | 8.68861 | 17837 ft | 374 kts | 192° |
| 2026-05-05 18:01 | 48.52116 | 8.68180 | 17836 ft | 374 kts | 192° |
| 2026-05-05 18:01 | 48.49549 | 8.67502 | 17838 ft | 374 kts | 192° |
| 2026-05-05 18:01 | 48.46987 | 8.66821 | 17838 ft | 373 kts | 192° |
| 2026-05-05 18:01 | 48.44428 | 8.66141 | 17837 ft | 373 kts | 192° |
| 2026-05-05 18:02 | 48.41904 | 8.65473 | 17838 ft | 373 kts | 192° |
| 2026-05-05 18:02 | 48.39314 | 8.64788 | 17841 ft | 373 kts | 192° |
| 2026-05-05 18:02 | 48.36791 | 8.64113 | 17841 ft | 373 kts | 192° |
| 2026-05-05 18:02 | 48.34242 | 8.63377 | 17841 ft | 373 kts | 193° |
| 2026-05-05 18:03 | 48.31702 | 8.62605 | 17844 ft | 373 kts | 194° |
| 2026-05-05 18:03 | 48.29159 | 8.61815 | 17849 ft | 373 kts | 194° |
| 2026-05-05 18:03 | 48.26620 | 8.61022 | 17849 ft | 373 kts | 194° |
| 2026-05-05 18:03 | 48.24076 | 8.60238 | 17855 ft | 373 kts | 193° |
| 2026-05-05 18:04 | 48.21531 | 8.59466 | 17853 ft | 373 kts | 193° |
| 2026-05-05 18:04 | 48.18988 | 8.58700 | 17854 ft | 373 kts | 193° |
| 2026-05-05 18:04 | 48.16439 | 8.57937 | 17855 ft | 373 kts | 193° |
| 2026-05-05 18:04 | 48.13893 | 8.57176 | 17857 ft | 373 kts | 193° |
| 2026-05-05 18:05 | 48.11345 | 8.56417 | 17850 ft | 373 kts | 193° |
| 2026-05-05 18:05 | 48.08798 | 8.55663 | 17857 ft | 373 kts | 193° |
| 2026-05-05 18:05 | 48.06256 | 8.54908 | 17863 ft | 372 kts | 193° |
| 2026-05-05 18:05 | 48.03715 | 8.54152 | 17863 ft | 372 kts | 193° |
| 2026-05-05 18:06 | 48.01177 | 8.53394 | 17863 ft | 372 kts | 193° |
| 2026-05-05 18:06 | 48.00318 | 8.53137 | 17862 ft | 372 kts | 193° |
| 2026-05-05 18:06 | 47.96019 | 8.52748 | 17865 ft | 377 kts | 175° |
| 2026-05-05 18:06 | 47.93458 | 8.53677 | 17863 ft | 382 kts | 160° |
| 2026-05-05 18:07 | 47.91178 | 8.55696 | 17439 ft | 384 kts | 145° |
| 2026-05-05 18:07 | 47.89102 | 8.58191 | 16880 ft | 382 kts | 144° |
| 2026-05-05 18:07 | 47.87062 | 8.60708 | 16366 ft | 379 kts | 144° |
| 2026-05-05 18:07 | 47.85046 | 8.63206 | 15858 ft | 376 kts | 144° |
| 2026-05-05 18:08 | 47.83044 | 8.65693 | 15354 ft | 374 kts | 144° |
| 2026-05-05 18:08 | 47.81052 | 8.68173 | 14867 ft | 371 kts | 144° |
| 2026-05-05 18:08 | 47.79083 | 8.70630 | 14401 ft | 369 kts | 144° |
| 2026-05-05 18:08 | 47.77149 | 8.73049 | 14214 ft | 354 kts | 144° |
| 2026-05-05 18:09 | 47.75335 | 8.75339 | 14097 ft | 330 kts | 144° |
| 2026-05-05 18:09 | 47.73652 | 8.77483 | 13964 ft | 309 kts | 144° |
| 2026-05-05 18:09 | 47.72078 | 8.79512 | 13852 ft | 291 kts | 144° |
| 2026-05-05 18:09 | 47.70561 | 8.81344 | 13662 ft | 272 kts | 156° |
| 2026-05-05 18:10 | 47.68835 | 8.82127 | 13393 ft | 254 kts | 184° |
| 2026-05-05 18:10 | 47.67150 | 8.81588 | 13019 ft | 247 kts | 209° |
| 2026-05-05 18:10 | 47.65661 | 8.80380 | 12594 ft | 243 kts | 213° |
| 2026-05-05 18:10 | 47.64217 | 8.79089 | 12155 ft | 242 kts | 214° |
| 2026-05-05 18:11 | 47.62785 | 8.77793 | 11648 ft | 241 kts | 214° |
| 2026-05-05 18:11 | 47.61360 | 8.76499 | 11145 ft | 239 kts | 214° |
| 2026-05-05 18:11 | 47.60030 | 8.75070 | 10645 ft | 235 kts | 230° |
| 2026-05-05 18:11 | 47.59326 | 8.72929 | 10163 ft | 235 kts | 259° |
| 2026-05-05 18:12 | 47.59347 | 8.71325 | 9840 ft | 239 kts | 279° |
| 2026-05-05 18:12 | 47.59978 | 8.69031 | 9317 ft | 242 kts | 292° |
| 2026-05-05 18:12 | 47.60779 | 8.66844 | 8796 ft | 241 kts | 294° |
| 2026-05-05 18:12 | 47.61593 | 8.64677 | 8286 ft | 242 kts | 294° |
| 2026-05-05 18:13 | 47.62674 | 8.61774 | 7862 ft | 239 kts | 294° |
| 2026-05-05 18:13 | 47.63210 | 8.60326 | 7712 ft | 236 kts | 294° |
| 2026-05-05 18:13 | 47.63995 | 8.58204 | 7415 ft | 233 kts | 294° |
| 2026-05-05 18:13 | 47.64771 | 8.56101 | 7101 ft | 232 kts | 294° |
| 2026-05-05 18:14 | 47.65458 | 8.53967 | 6774 ft | 226 kts | 281° |
| 2026-05-05 18:14 | 47.65751 | 8.51696 | 6451 ft | 223 kts | 275° |
| 2026-05-05 18:14 | 47.65951 | 8.49418 | 6128 ft | 223 kts | 274° |
| 2026-05-05 18:14 | 47.66131 | 8.47144 | 5869 ft | 218 kts | 273° |
| 2026-05-05 18:15 | 47.65970 | 8.45004 | 5733 ft | 205 kts | 244° |
| 2026-05-05 18:15 | 47.65241 | 8.43246 | 5608 ft | 196 kts | 235° |
| 2026-05-05 18:15 | 47.64438 | 8.41649 | 5464 ft | 190 kts | 234° |
| 2026-05-05 18:15 | 47.63645 | 8.40129 | 5351 ft | 182 kts | 231° |
| 2026-05-05 18:16 | 47.62608 | 8.39146 | 5105 ft | 181 kts | 194° |
| 2026-05-05 18:16 | 47.61323 | 8.39185 | 4834 ft | 189 kts | 176° |
| 2026-05-05 18:16 | 47.60019 | 8.39525 | 4570 ft | 192 kts | 174° |
| 2026-05-05 18:16 | 47.58717 | 8.39937 | 4288 ft | 193 kts | 168° |
| 2026-05-05 18:17 | 47.57506 | 8.40879 | 3995 ft | 201 kts | 144° |
| 2026-05-05 18:17 | 47.56474 | 8.42274 | 3683 ft | 199 kts | 141° |
| 2026-05-05 18:17 | 47.55467 | 8.43664 | 3416 ft | 197 kts | 141° |
| 2026-05-05 18:17 | 47.54479 | 8.45023 | 3149 ft | 189 kts | 140° |
| 2026-05-05 18:18 | 47.53565 | 8.46278 | 2922 ft | 170 kts | 140° |
| 2026-05-05 18:18 | 47.52738 | 8.47412 | 2694 ft | 156 kts | 141° |
| 2026-05-05 18:18 | 47.51962 | 8.48473 | 2484 ft | 149 kts | 141° |
| 2026-05-05 18:18 | 47.51208 | 8.49504 | 2273 ft | 146 kts | 140° |
| 2026-05-05 18:19 | 47.50467 | 8.50517 | 2066 ft | 145 kts | 140° |
| 2026-05-05 18:19 | 47.49732 | 8.51526 | 1847 ft | 144 kts | 138° |
| 2026-05-05 18:19 | 47.49003 | 8.52526 | 1682 ft | 143 kts | 139° |
| 2026-05-05 18:19 | 47.48279 | 8.53519 | 1479 ft | 141 kts | 139° |
| 2026-05-05 18:20 | 47.47584 | 8.54460 | 1398 ft | 122 kts | 137° |
| 2026-05-05 18:20 | 47.47157 | 8.55045 | 1384 ft | 63 kts | 137° |
| 2026-05-05 18:20 | 47.46861 | 8.55447 | 1392 ft | 46 kts | 137° |
| 2026-05-05 18:20 | 47.46654 | 8.55651 | 1402 ft | 35 kts | 160° |
| 2026-05-05 18:21 | 47.46460 | 8.55725 | 1401 ft | 18 kts | 167° |
| 2026-05-05 18:21 | 47.46361 | 8.55788 | 1404 ft | 14 kts | 139° |
| 2026-05-05 18:21 | 47.46297 | 8.55875 | 1408 ft | 12 kts | 137° |
| 2026-05-05 18:21 | 47.46234 | 8.55961 | 1408 ft | 15 kts | 137° |
| 2026-05-05 18:22 | 47.46127 | 8.55994 | 1407 ft | 16 kts | 185° |
| 2026-05-05 18:22 | 47.46009 | 8.55977 | 1406 ft | 18 kts | 185° |
| 2026-05-05 18:22 | 47.45886 | 8.55925 | 1412 ft | 14 kts | 200° |
| 2026-05-05 18:22 | 47.45830 | 8.55896 | 1413 ft | 0 kts | 199° |
| 2026-05-05 18:24 | 47.45829 | 8.55895 | 1410 ft | 2 kts | 199° |
| 2026-05-05 18:24 | 47.45766 | 8.55876 | 1409 ft | 13 kts | 188° |
| 2026-05-05 18:24 | 47.45673 | 8.55862 | 1408 ft | 9 kts | 185° |
| 2026-05-05 18:25 | 47.45642 | 8.55852 | 1408 ft | 6 kts | 212° |
| 2026-05-05 18:25 | 47.45642 | 8.55790 | 1410 ft | 13 kts | 277° |
| 2026-05-05 18:25 | 47.45655 | 8.55626 | 1404 ft | 13 kts | 276° |
| 2026-05-05 18:25 | 47.45667 | 8.55431 | 1401 ft | 19 kts | 276° |
| 2026-05-05 18:26 | 47.45620 | 8.55344 | 1401 ft | 14 kts | 165° |
| 2026-05-05 18:26 | 47.45536 | 8.55415 | 1405 ft | 13 kts | 124° |
| 2026-05-05 18:26 | 47.45526 | 8.55502 | 1408 ft | 4 kts | 97° |
| 2026-05-05 18:26 | 47.45523 | 8.55528 | 1406 ft | 4 kts | 98° |
| 2026-05-05 18:27 | 47.45539 | 8.55590 | 1411 ft | 7 kts | 13° |
| 2026-05-05 18:27 | 47.45592 | 8.55596 | 1405 ft | 6 kts | 6° |